Time;durP1;ratioP1;P1;durP2;ratioP2;P2;SDS_P1;SDS_P2;PMS_P1;PMS_P2;Temp;Humidity;BMP_temperature;BMP_pressure;BME280_temperature;BME280_humidity;BME280_pressure;Samples;Min_cycle;Max_cycle;Signal;HPM_P1;HPM_P2
2024/02/22 00:01:18;;;;;;;8.35;5.25;;;;;;;9.56;89.04;98141.66;4821402;29;20061;-78
2024/02/22 00:03:45;;;;;;;7.55;5.72;;;;;;;9.56;89.08;98139.00;4804993;29;20058;-78
2024/02/22 00:06:12;;;;;;;6.55;5.32;;;;;;;9.57;88.98;98127.56;4821405;29;20115;-79
2024/02/22 00:08:40;;;;;;;7.78;5.88;;;;;;;9.58;89.06;98137.97;4821087;29;20668;-80
2024/02/22 00:11:07;;;;;;;7.07;6.07;;;;;;;9.59;89.05;98134.38;4819839;29;20592;-78
2024/02/22 00:13:34;;;;;;;7.22;5.22;;;;;;;9.61;89.13;98126.38;4821205;29;20062;-79
2024/02/22 00:16:03;;;;;;;6.78;5.57;;;;;;;9.61;89.22;98118.50;4821126;29;20123;-77
2024/02/22 00:18:30;;;;;;;6.93;5.60;;;;;;;9.62;89.15;98117.53;4820964;29;20154;-77
2024/02/22 00:20:57;;;;;;;9.30;5.75;;;;;;;9.63;89.12;98106.06;4820911;29;20066;-78
2024/02/22 00:23:23;;;;;;;7.35;5.63;;;;;;;9.62;89.46;98096.50;4821058;29;20097;-78
2024/02/22 00:25:50;;;;;;;8.80;5.20;;;;;;;9.64;89.51;98094.59;4804468;29;20098;-78
2024/02/22 00:28:17;;;;;;;10.07;5.78;;;;;;;9.65;89.40;98094.47;4819513;29;20066;-79
2024/02/22 00:30:43;;;;;;;6.68;5.35;;;;;;;9.67;89.47;98086.47;4804645;29;20093;-77
2024/02/22 00:33:10;;;;;;;8.75;5.53;;;;;;;9.67;89.44;98085.63;4820926;29;20084;-79
2024/02/22 00:35:36;;;;;;;5.20;4.47;;;;;;;9.69;89.49;98084.56;4820707;29;20063;-78
2024/02/22 00:38:03;;;;;;;8.63;5.45;;;;;;;9.69;89.56;98097.69;4823601;29;20419;-78
2024/02/22 00:40:30;;;;;;;5.68;5.00;;;;;;;9.69;89.61;98097.69;4824074;29;20062;-77
2024/02/22 00:42:57;;;;;;;5.60;4.88;;;;;;;9.70;89.76;98080.97;4823632;29;20505;-78
2024/02/22 00:45:23;;;;;;;6.30;5.00;;;;;;;9.73;89.85;98074.63;4823832;29;20137;-78
2024/02/22 00:47:50;;;;;;;5.80;5.00;;;;;;;9.74;89.66;98085.03;4823676;29;20094;-78
2024/02/22 00:50:16;;;;;;;6.18;5.40;;;;;;;9.76;89.86;98084.91;4807640;29;20063;-77
2024/02/22 00:52:43;;;;;;;5.78;4.45;;;;;;;9.78;89.96;98075.94;4823828;29;20061;-79
2024/02/22 00:55:10;;;;;;;5.97;5.35;;;;;;;9.79;89.95;98071.50;4823667;29;20058;-79
2024/02/22 00:57:37;;;;;;;8.88;5.00;;;;;;;9.80;89.63;98053.94;4823485;29;20050;-78
2024/02/22 01:00:04;;;;;;;5.57;5.05;;;;;;;9.81;90.14;98058.25;4807546;29;20059;-78
2024/02/22 01:02:31;;;;;;;5.13;4.63;;;;;;;9.82;90.15;98054.66;4823658;29;20891;-77
2024/02/22 01:04:58;;;;;;;6.25;4.55;;;;;;;9.83;90.23;98057.16;4823597;29;20116;-78
2024/02/22 01:07:25;;;;;;;5.03;4.53;;;;;;;9.86;90.25;98058.69;4822158;29;20066;-78
2024/02/22 01:09:51;;;;;;;6.18;4.65;;;;;;;9.86;90.40;98038.50;4823412;29;20536;-78
2024/02/22 01:12:18;;;;;;;5.53;4.75;;;;;;;9.89;90.25;98037.44;4823405;29;20146;-79
2024/02/22 01:14:44;;;;;;;4.53;4.13;;;;;;;9.90;90.22;98046.97;4823339;29;20061;-79
2024/02/22 01:17:11;;;;;;;4.95;4.55;;;;;;;9.92;90.31;98037.19;4823021;29;20058;-77
2024/02/22 01:19:38;;;;;;;4.53;4.13;;;;;;;9.95;90.22;98030.84;4823532;29;20381;-77
2024/02/22 01:22:04;;;;;;;4.90;4.40;;;;;;;9.95;90.31;98021.16;4822245;29;20057;-78
2024/02/22 01:24:32;;;;;;;4.05;3.72;;;;;;;9.95;90.44;98021.16;4823033;29;20145;-79
2024/02/22 01:26:58;;;;;;;4.75;3.92;;;;;;;9.98;90.37;98010.38;4823387;29;20115;-78
2024/02/22 01:29:26;;;;;;;4.85;4.38;;;;;;;9.99;90.33;98013.84;4823078;29;20141;-79
2024/02/22 01:31:53;;;;;;;4.57;4.18;;;;;;;9.99;90.32;97995.47;4821823;29;20100;-78
2024/02/22 01:34:20;;;;;;;4.43;4.00;;;;;;;10.01;90.38;97993.50;4823193;29;20054;-78
2024/02/22 01:36:47;;;;;;;4.70;4.30;;;;;;;10.02;90.46;97989.94;4823198;29;20054;-78
2024/02/22 01:39:14;;;;;;;4.50;4.10;;;;;;;10.04;90.47;97980.97;4822952;29;20066;-78
2024/02/22 01:41:41;;;;;;;5.40;4.70;;;;;;;10.03;90.45;97975.84;4806794;29;20145;-79
2024/02/22 01:44:07;;;;;;;4.97;4.47;;;;;;;10.06;90.45;97972.13;4806671;29;20059;-79
2024/02/22 01:46:34;;;;;;;4.57;4.18;;;;;;;10.08;90.58;97983.31;4822768;29;20065;-78
2024/02/22 01:49:02;;;;;;;5.10;4.70;;;;;;;10.11;90.42;97972.56;4822472;29;20100;-79
2024/02/22 01:51:29;;;;;;;4.80;4.40;;;;;;;10.11;90.42;97964.66;4823122;29;20138;-79
2024/02/22 01:53:57;;;;;;;5.03;4.57;;;;;;;10.12;90.38;97975.06;4822892;29;20066;-78
2024/02/22 01:56:24;;;;;;;5.50;5.00;;;;;;;10.12;90.46;97968.97;4806444;29;20062;-78
2024/02/22 01:58:52;;;;;;;4.85;4.45;;;;;;;10.14;90.48;97962.59;4806361;29;20062;-79
2024/02/22 02:01:22;;;;;;;5.35;4.93;;;;;;;10.12;90.41;97956.66;4822749;29;20050;-78
2024/02/22 02:03:50;;;;;;;5.18;4.70;;;;;;;10.16;90.56;97933.56;4822576;29;20061;-77
2024/02/22 02:06:17;;;;;;;4.97;4.57;;;;;;;10.16;90.65;97957.22;4806413;29;20062;-77
2024/02/22 02:08:45;;;;;;;4.93;4.45;;;;;;;10.19;90.58;97932.47;4822392;29;20054;-78
2024/02/22 02:11:11;;;;;;;4.93;4.53;;;;;;;10.20;90.60;97926.25;4822506;29;20141;-79
2024/02/22 02:13:38;;;;;;;4.72;4.32;;;;;;;10.20;90.95;97919.19;4822498;29;20493;-78
2024/02/22 02:16:05;;;;;;;5.43;4.93;;;;;;;10.21;90.74;97910.34;4821573;29;20309;-78
2024/02/22 02:18:32;;;;;;;4.80;4.43;;;;;;;10.24;90.64;97917.97;4806060;29;20153;-78
2024/02/22 02:21:08;;;;;;;5.20;4.80;;;;;;;10.22;90.64;97917.28;4822589;29;20062;-79
2024/02/22 02:24:00;;;;;;;5.75;5.25;;;;;;;10.21;90.62;97909.53;4822217;29;20089;-78
2024/02/22 02:26:27;;;;;;;5.47;4.97;;;;;;;10.26;90.76;97921.31;4822240;29;20502;-81
2024/02/22 02:28:54;;;;;;;5.18;4.78;;;;;;;10.28;90.71;97918.56;4822281;29;20050;-79
2024/02/22 02:31:21;;;;;;;5.60;5.10;;;;;;;10.28;90.80;97915.94;4821179;29;20058;-78
2024/02/22 02:33:47;;;;;;;5.40;5.00;;;;;;;10.29;90.80;97921.03;4822255;29;20062;-80
2024/02/22 02:36:14;;;;;;;5.75;5.10;;;;;;;10.32;90.83;97913.84;4822114;29;20073;-80
2024/02/22 02:38:40;;;;;;;5.80;5.30;;;;;;;10.33;90.84;97910.25;4821899;29;20149;-78
2024/02/22 02:41:07;;;;;;;5.53;5.03;;;;;;;10.33;90.80;97903.22;4805680;29;20528;-78
2024/02/22 02:43:34;;;;;;;5.68;5.18;;;;;;;10.35;90.80;97906.53;4822062;29;20080;-78
2024/02/22 02:46:01;;;;;;;4.78;4.35;;;;;;;10.35;91.10;97905.72;4822029;29;20063;-78
2024/02/22 02:48:27;;;;;;;4.63;4.25;;;;;;;10.36;91.08;97889.78;4821929;29;20414;-78
2024/02/22 02:50:54;;;;;;;4.85;4.45;;;;;;;10.38;90.93;97893.13;4821881;29;20058;-78
2024/02/22 02:53:22;;;;;;;4.68;4.28;;;;;;;10.39;91.11;97886.06;4822018;29;20062;-78
2024/02/22 02:55:49;;;;;;;4.30;4.00;;;;;;;10.41;90.97;97887.59;4822038;29;20062;-79
2024/02/22 02:58:15;;;;;;;4.75;4.35;;;;;;;10.40;91.06;97880.66;4821661;29;20143;-78
2024/02/22 03:00:42;;;;;;;4.43;4.05;;;;;;;10.42;91.17;97878.75;4821226;29;20504;-78
2024/02/22 03:03:09;;;;;;;4.20;3.90;;;;;;;10.42;91.08;97893.69;4821661;29;20143;-79
2024/02/22 03:05:39;;;;;;;4.82;4.43;;;;;;;10.46;91.16;97874.06;4820557;29;20416;-79
2024/02/22 03:08:06;;;;;;;4.18;3.88;;;;;;;10.49;91.30;97872.97;4821513;29;20141;-79
2024/02/22 03:10:36;;;;;;;5.38;4.88;;;;;;;10.48;91.23;97861.63;4821892;29;20069;-78
2024/02/22 03:13:08;;;;;;;4.90;4.50;;;;;;;10.48;91.31;97859.00;4821748;29;20070;-78
2024/02/22 03:15:38;;;;;;;4.82;4.47;;;;;;;10.53;91.39;97872.56;4821632;29;20062;-78
2024/02/22 03:18:06;;;;;;;4.82;4.43;;;;;;;10.52;91.36;97865.66;4804938;29;20066;-78
2024/02/22 03:20:33;;;;;;;5.75;5.25;;;;;;;10.53;91.51;97862.06;4829972;24;20126;-86
2024/02/22 03:23:00;;;;;;;5.55;5.07;;;;;;;10.54;91.25;97847.94;4842329;29;20065;-86
2024/02/22 03:25:30;;;;;;;5.97;5.47;;;;;;;10.57;91.46;97840.75;4842387;29;20066;-85
2024/02/22 03:28:01;;;;;;;5.43;5.03;;;;;;;10.58;91.42;97840.59;4825734;29;20072;-86
2024/02/22 03:30:27;;;;;;;6.38;5.78;;;;;;;10.62;91.62;97838.53;4826248;29;20065;-85
2024/02/22 03:32:55;;;;;;;6.40;5.80;;;;;;;10.62;91.43;97841.97;4842613;29;20057;-85
2024/02/22 03:35:23;;;;;;;7.47;6.88;;;;;;;10.63;91.34;97834.94;4826578;29;20056;-86
2024/02/22 03:37:50;;;;;;;7.50;6.85;;;;;;;10.65;91.44;97831.19;4841685;29;20298;-85
2024/02/22 03:40:17;;;;;;;7.50;6.80;;;;;;;10.67;91.59;97825.81;4826318;29;20066;-85
2024/02/22 03:42:47;;;;;;;7.72;7.03;;;;;;;10.68;91.55;97819.56;4842709;29;20121;-85
2024/02/22 03:45:16;;;;;;;8.18;7.38;;;;;;;10.69;91.52;97816.78;4825797;29;20140;-85
2024/02/22 03:47:42;;;;;;;7.50;6.80;;;;;;;10.70;91.72;97815.00;4825441;29;20072;-86
2024/02/22 03:50:11;;;;;;;7.43;6.63;;;;;;;10.74;91.71;97816.41;4825830;29;20510;-85
2024/02/22 03:52:38;;;;;;;7.40;6.70;;;;;;;10.75;91.45;97804.06;4826060;29;20491;-85
2024/02/22 03:55:06;;;;;;;8.20;7.40;;;;;;;10.77;91.42;97816.09;4826195;29;20061;-85
2024/02/22 03:57:33;;;;;;;8.38;7.57;;;;;;;10.78;91.44;97820.41;4841898;29;20065;-85
2024/02/22 03:59:59;;;;;;;8.50;7.70;;;;;;;10.77;91.54;97805.56;4841850;29;20058;-86
2024/02/22 04:02:26;;;;;;;8.85;8.05;;;;;;;10.80;91.73;97805.31;4825866;29;20118;-86
2024/02/22 04:04:54;;;;;;;8.60;7.80;;;;;;;10.81;91.76;97801.69;4841831;29;20058;-87
2024/02/22 04:07:23;;;;;;;7.93;7.22;;;;;;;10.84;91.82;97797.97;4841701;29;20091;-87
2024/02/22 04:09:51;;;;;;;9.43;8.52;;;;;;;10.82;91.83;97808.66;4842016;29;20062;-87
2024/02/22 04:12:17;;;;;;;8.98;8.07;;;;;;;10.86;92.04;97798.66;4828994;29;20066;-87
2024/02/22 04:14:44;;;;;;;8.70;7.93;;;;;;;10.86;92.04;97801.31;4845230;29;20171;-87
2024/02/22 04:17:11;;;;;;;9.18;8.30;;;;;;;10.89;91.89;97792.28;4844940;29;20065;-85
2024/02/22 04:19:38;;;;;;;8.55;7.75;;;;;;;10.92;91.94;97786.75;4845628;29;20114;-85
2024/02/22 04:22:04;;;;;;;7.78;7.07;;;;;;;10.94;91.90;97795.34;4845083;29;20570;-85
2024/02/22 04:24:31;;;;;;;9.13;7.72;;;;;;;10.96;91.95;97801.31;4828503;29;20054;-84
2024/02/22 04:26:59;;;;;;;7.88;6.90;;;;;;;10.97;91.94;97784.53;4845434;29;20074;-85
2024/02/22 04:29:25;;;;;;;7.00;6.30;;;;;;;11.00;91.86;97783.44;4844892;29;20061;-85
2024/02/22 04:31:52;;;;;;;6.93;6.32;;;;;;;11.00;92.00;97786.06;4828828;29;20054;-85
2024/02/22 04:34:19;;;;;;;6.50;5.90;;;;;;;11.03;91.86;97785.78;4845591;29;20062;-86
2024/02/22 04:36:47;;;;;;;5.13;4.68;;;;;;;11.03;91.76;97767.38;4828998;29;20066;-86
2024/02/22 04:39:16;;;;;;;6.05;5.53;;;;;;;11.05;91.98;97792.56;4828676;29;20803;-85
2024/02/22 04:41:44;;;;;;;6.25;5.65;;;;;;;11.05;91.95;97791.72;4829053;29;20082;-85
2024/02/22 04:44:12;;;;;;;5.20;4.70;;;;;;;11.08;92.15;97781.78;4845602;29;20062;-86
2024/02/22 04:46:39;;;;;;;5.00;4.50;;;;;;;11.10;91.85;97775.53;4828556;29;20058;-87
2024/02/22 04:49:09;;;;;;;4.88;4.40;;;;;;;11.13;91.91;97773.44;4844506;29;20054;-86
2024/02/22 04:51:37;;;;;;;5.03;4.55;;;;;;;11.15;92.00;97770.66;4829460;29;20069;-86
2024/02/22 04:54:04;;;;;;;5.15;4.65;;;;;;;11.14;91.90;97764.56;4845282;29;20508;-86
2024/02/22 04:56:30;;;;;;;5.22;4.82;;;;;;;11.16;91.91;97761.78;4828722;29;20125;-87
2024/02/22 04:58:57;;;;;;;5.85;5.35;;;;;;;11.17;91.97;97747.66;4845018;29;20069;-87
2024/02/22 05:01:26;;;;;;;5.93;5.30;;;;;;;11.16;91.89;97767.06;4828576;29;20069;-87
2024/02/22 05:03:53;;;;;;;5.72;5.22;;;;;;;11.17;91.93;97748.50;4828673;29;20153;-86
2024/02/22 05:06:21;;;;;;;6.30;5.70;;;;;;;11.19;92.07;97746.56;4844972;29;20061;-87
2024/02/22 05:08:48;;;;;;;7.03;6.32;;;;;;;11.21;92.26;97755.13;4828139;29;20088;-88
2024/02/22 05:11:14;;;;;;;6.10;5.50;;;;;;;11.24;92.16;97740.84;4828470;29;20577;-87
2024/02/22 05:13:44;;;;;;;6.95;6.25;;;;;;;11.26;92.29;97743.34;4844783;29;20062;-87
2024/02/22 05:16:11;;;;;;;7.05;6.22;;;;;;;11.27;92.22;97735.31;4844986;29;20054;-86
2024/02/22 05:18:38;;;;;;;9.52;7.93;;;;;;;11.29;92.21;97725.44;4827950;29;20088;-86
2024/02/22 05:21:05;;;;;;;9.25;8.25;;;;;;;11.31;92.51;97744.59;4828159;29;20068;-85
2024/02/22 05:23:34;;;;;;;10.57;8.13;;;;;;;11.32;92.25;97729.59;4827318;29;20065;-85
2024/02/22 05:26:01;;;;;;;8.55;7.70;;;;;;;11.34;92.16;97727.66;4844773;29;20590;-85
2024/02/22 05:28:28;;;;;;;13.65;8.57;;;;;;;11.36;92.23;97730.97;4844648;29;20062;-85
2024/02/22 05:30:54;;;;;;;10.00;8.98;;;;;;;11.38;92.43;97722.94;4828050;29;20475;-85
2024/02/22 05:33:21;;;;;;;10.38;9.27;;;;;;;11.39;92.22;97724.59;4828265;29;20085;-85
2024/02/22 05:35:48;;;;;;;10.40;9.00;;;;;;;11.41;92.33;97712.97;4844368;29;20078;-85
2024/02/22 05:38:15;;;;;;;11.45;9.38;;;;;;;11.41;92.23;97712.13;4844352;29;20095;-86
2024/02/22 05:40:42;;;;;;;10.48;9.38;;;;;;;11.43;91.84;97718.06;4844101;29;20069;-86
2024/02/22 05:43:10;;;;;;;10.48;9.48;;;;;;;11.44;91.96;97715.28;4844207;29;20517;-86
2024/02/22 05:45:45;;;;;;;13.15;10.07;;;;;;;11.44;92.06;97722.38;4827790;29;20079;-85
2024/02/22 05:48:13;;;;;;;13.05;10.18;;;;;;;11.45;91.95;97716.13;4827112;29;20058;-87
2024/02/22 05:50:40;;;;;;;12.63;10.63;;;;;;;11.48;92.02;97718.47;4828626;29;20058;-87
2024/02/22 05:53:07;;;;;;;12.57;9.95;;;;;;;11.49;91.99;97716.66;4828905;29;20058;-86
2024/02/22 05:55:33;;;;;;;12.20;10.82;;;;;;;11.51;91.99;97717.38;4828513;29;20143;-86
2024/02/22 05:58:00;;;;;;;13.45;11.15;;;;;;;11.51;91.99;97717.38;4827401;29;20089;-87
2024/02/22 06:00:27;;;;;;;13.63;11.02;;;;;;;11.52;91.97;97711.09;4844008;29;20057;-86
2024/02/22 06:02:53;;;;;;;12.93;10.82;;;;;;;11.53;91.85;97710.13;4843712;29;20076;-86
2024/02/22 06:05:20;;;;;;;14.70;11.38;;;;;;;11.53;91.84;97710.97;4827819;29;20119;-87
2024/02/22 06:07:47;;;;;;;14.30;11.13;;;;;;;11.54;91.85;97710.00;4826724;29;20114;-87
2024/02/22 06:10:14;;;;;;;13.80;11.40;;;;;;;11.54;91.63;97706.50;4826695;29;20146;-87
2024/02/22 06:12:42;;;;;;;14.50;11.40;;;;;;;11.55;91.97;97706.38;4843204;29;20506;-86
2024/02/22 06:15:10;;;;;;;14.52;11.77;;;;;;;11.56;91.59;97715.13;4827587;29;20065;-87
2024/02/22 06:17:37;;;;;;;13.93;12.05;;;;;;;11.56;91.88;97713.28;4843783;29;20054;-86
2024/02/22 06:20:05;;;;;;;15.55;12.27;;;;;;;11.58;91.82;97711.34;4828006;29;20064;-88
2024/02/22 06:22:33;;;;;;;14.38;11.55;;;;;;;11.58;91.78;97708.72;4827826;29;20469;-86
2024/02/22 06:25:03;;;;;;;13.55;10.98;;;;;;;11.59;91.67;97712.19;4828052;29;20056;-87
2024/02/22 06:27:30;;;;;;;17.00;11.75;;;;;;;11.61;91.58;97707.59;4843497;29;20066;-88
2024/02/22 06:29:57;;;;;;;14.55;12.05;;;;;;;11.62;91.60;97711.09;4844254;29;20061;-86
2024/02/22 06:32:26;;;;;;;16.08;11.38;;;;;;;11.64;91.55;97711.75;4827093;29;20102;-87
2024/02/22 06:34:53;;;;;;;15.23;12.20;;;;;;;11.63;91.50;97712.72;4843445;29;20061;-86
2024/02/22 06:37:19;;;;;;;12.98;11.45;;;;;;;11.65;91.38;97714.25;4843497;29;20062;-87
2024/02/22 06:39:46;;;;;;;14.60;11.40;;;;;;;11.67;91.46;97706.19;4844233;29;20093;-87
2024/02/22 06:42:13;;;;;;;14.82;12.57;;;;;;;11.66;91.60;97700.09;4844038;29;20062;-86
2024/02/22 06:44:43;;;;;;;12.45;10.98;;;;;;;11.66;91.40;97704.53;4827982;29;20057;-87
2024/02/22 06:47:11;;;;;;;16.67;11.70;;;;;;;11.68;91.43;97703.41;4828301;29;20066;-87
2024/02/22 06:49:38;;;;;;;15.00;12.07;;;;;;;11.68;91.42;97708.69;4828792;29;20058;-87
2024/02/22 06:52:05;;;;;;;16.60;12.52;;;;;;;11.69;91.28;97698.97;4845760;29;20068;-86
2024/02/22 06:54:32;;;;;;;19.77;13.43;;;;;;;11.69;91.06;97707.72;4843412;29;20096;-86
2024/02/22 06:56:59;;;;;;;14.55;12.15;;;;;;;11.71;91.32;97697.84;4841642;29;20062;-86
2024/02/22 06:59:25;;;;;;;15.43;12.23;;;;;;;11.72;91.21;97690.78;4824513;29;20062;-88
2024/02/22 07:01:52;;;;;;;16.00;12.68;;;;;;;11.74;91.14;97694.09;4824979;29;20072;-88
2024/02/22 07:04:19;;;;;;;20.42;13.10;;;;;;;11.72;91.13;97693.41;4824966;29;20425;-86
2024/02/22 07:06:45;;;;;;;21.98;13.88;;;;;;;11.72;91.25;97690.78;4825090;29;20057;-88
2024/02/22 07:09:12;;;;;;;17.38;13.35;;;;;;;11.73;91.13;97692.41;4824087;29;20099;-87
2024/02/22 07:11:39;;;;;;;17.80;12.85;;;;;;;11.73;91.18;97684.50;4840934;29;20505;-85
2024/02/22 07:14:05;;;;;;;23.08;14.57;;;;;;;11.73;91.18;97688.00;4841120;29;20137;-85
2024/02/22 07:16:33;;;;;;;16.83;13.32;;;;;;;11.75;91.05;97681.75;4840825;29;20485;-85
2024/02/22 07:19:00;;;;;;;17.50;13.68;;;;;;;11.75;91.05;97679.94;4840018;29;20217;-86
2024/02/22 07:21:34;;;;;;;18.63;12.98;;;;;;;11.73;90.60;97684.50;4824513;29;20058;-86
2024/02/22 07:24:03;;;;;;;15.05;12.20;;;;;;;11.77;91.15;97666.63;4822810;29;20070;-85
2024/02/22 07:26:32;;;;;;;18.17;11.93;;;;;;;11.75;90.71;97674.69;4839324;29;20077;-85
2024/02/22 07:28:59;;;;;;;21.35;11.73;;;;;;;11.76;90.97;97662.31;4822518;29;20121;-85
2024/02/22 07:31:26;;;;;;;21.70;12.85;;;;;;;11.75;91.05;97671.19;4823187;29;20062;-85
2024/02/22 07:33:53;;;;;;;17.05;11.10;;;;;;;11.75;90.99;97664.13;4840010;29;20072;-85
2024/02/22 07:36:21;;;;;;;14.55;11.32;;;;;;;11.78;90.98;97660.38;4824757;29;20070;-85
2024/02/22 07:38:48;;;;;;;15.32;11.23;;;;;;;11.79;91.12;97657.59;4841160;29;20122;-85
2024/02/22 07:41:17;;;;;;;18.13;11.45;;;;;;;11.79;90.98;97665.50;4841761;29;20068;-85
2024/02/22 07:43:46;;;;;;;20.02;11.80;;;;;;;11.79;90.76;97668.13;4840948;29;20156;-85
2024/02/22 07:46:14;;;;;;;16.15;11.73;;;;;;;11.79;90.71;97662.03;4826267;29;20058;-85
2024/02/22 07:48:41;;;;;;;17.55;11.43;;;;;;;11.80;90.80;97656.59;4827248;29;20153;-85
2024/02/22 07:51:10;;;;;;;22.75;13.07;;;;;;;11.82;90.78;97645.91;4844011;29;20069;-85
2024/02/22 07:53:37;;;;;;;18.70;12.18;;;;;;;11.82;90.94;97633.53;4844347;29;20145;-85
2024/02/22 07:56:05;;;;;;;19.27;11.75;;;;;;;11.84;90.88;97631.59;4844370;29;20085;-86
2024/02/22 07:58:52;;;;;;;18.88;13.23;;;;;;;11.81;90.03;97626.63;4827002;29;20077;-86
2024/02/22 08:01:19;;;;;;;16.60;12.40;;;;;;;11.86;90.72;97629.63;4843633;29;20066;-86
2024/02/22 08:03:46;;;;;;;16.70;11.73;;;;;;;11.89;90.74;97614.53;4844048;29;20185;-86
2024/02/22 08:06:13;;;;;;;18.08;13.50;;;;;;;11.91;90.92;97602.84;4827649;29;20057;-85
2024/02/22 08:08:40;;;;;;;21.83;12.95;;;;;;;11.94;90.98;97606.97;4843132;29;20058;-85
2024/02/22 08:11:07;;;;;;;18.58;12.90;;;;;;;11.94;90.86;97602.56;4827453;29;20066;-86
2024/02/22 08:13:34;;;;;;;24.08;13.77;;;;;;;11.96;90.63;97605.84;4843706;29;20061;-85
2024/02/22 08:16:06;;;;;;;19.75;13.45;;;;;;;11.96;90.43;97605.84;4843790;29;20066;-87
2024/02/22 08:18:33;;;;;;;24.05;13.65;;;;;;;11.98;90.25;97605.72;4826506;29;20385;-88
2024/02/22 08:21:01;;;;;;;19.23;13.10;;;;;;;11.99;90.48;97602.94;4843314;29;20100;-85
2024/02/22 08:23:28;;;;;;;24.33;13.85;;;;;;;12.00;90.30;97595.81;4843284;29;20054;-85
2024/02/22 08:25:56;;;;;;;20.00;12.80;;;;;;;12.02;90.67;97591.25;4843050;29;20064;-85
2024/02/22 08:28:23;;;;;;;19.52;13.07;;;;;;;12.03;90.55;97600.81;4842647;29;20076;-85
2024/02/22 08:30:51;;;;;;;20.23;13.07;;;;;;;12.04;90.38;97605.09;4826879;29;20062;-86
2024/02/22 08:33:17;;;;;;;20.17;13.15;;;;;;;12.06;90.28;97597.06;4842914;29;20419;-85
2024/02/22 08:35:44;;;;;;;22.40;13.27;;;;;;;12.07;90.23;97596.13;4826647;29;20060;-86
2024/02/22 08:38:13;;;;;;;22.75;12.73;;;;;;;12.06;90.11;97592.63;4842546;29;20101;-85
2024/02/22 08:40:40;;;;;;;17.27;13.02;;;;;;;12.07;90.19;97589.00;4826619;29;20093;-85
2024/02/22 08:43:08;;;;;;;19.95;12.80;;;;;;;12.09;90.19;97579.16;4843400;29;20062;-85
2024/02/22 08:45:35;;;;;;;20.95;12.55;;;;;;;12.09;90.14;97579.16;4826419;29;20053;-85
2024/02/22 08:48:02;;;;;;;17.45;12.45;;;;;;;12.10;89.94;97572.91;4825973;29;20141;-85
2024/02/22 08:50:29;;;;;;;16.67;12.32;;;;;;;12.09;90.11;97563.34;4826480;29;20090;-85
2024/02/22 08:52:56;;;;;;;20.30;12.68;;;;;;;12.11;90.11;97556.09;4842807;29;20146;-85
2024/02/22 08:55:22;;;;;;;22.42;12.38;;;;;;;12.13;90.20;97542.75;4826583;29;20066;-85
2024/02/22 08:57:49;;;;;;;16.13;13.02;;;;;;;12.14;90.50;97544.41;4825289;29;20057;-85
2024/02/22 09:00:20;;;;;;;19.05;14.07;;;;;;;12.16;90.22;97554.81;4843504;29;20062;-85
2024/02/22 09:02:48;;;;;;;21.40;15.25;;;;;;;12.17;90.03;97545.91;4827694;29;20118;-87
2024/02/22 09:05:14;;;;;;;19.80;15.43;;;;;;;12.18;90.08;97545.75;4826928;29;20414;-86
2024/02/22 09:07:41;;;;;;;25.67;18.25;;;;;;;12.20;90.36;97537.69;4843074;29;20066;-87
2024/02/22 09:10:08;;;;;;;22.95;17.83;;;;;;;12.21;90.29;97536.69;4843626;29;20069;-87
2024/02/22 09:12:35;;;;;;;27.80;20.75;;;;;;;12.23;90.18;97532.94;4827081;29;20430;-87
2024/02/22 09:15:02;;;;;;;30.30;19.55;;;;;;;12.24;89.99;97524.06;4843229;29;20062;-87
2024/02/22 09:17:29;;;;;;;30.65;22.08;;;;;;;12.27;90.25;97522.09;4842734;29;20506;-87
2024/02/22 09:19:55;;;;;;;30.40;21.77;;;;;;;12.28;89.76;97523.72;4826592;29;20066;-86
2024/02/22 09:22:22;;;;;;;30.52;20.83;;;;;;;12.32;90.05;97530.34;4826710;29;20153;-87
2024/02/22 09:24:49;;;;;;;28.45;21.15;;;;;;;12.32;89.65;97520.66;4843160;29;20093;-86
2024/02/22 09:27:15;;;;;;;27.80;20.65;;;;;;;12.33;89.50;97516.19;4825917;29;20566;-86
2024/02/22 09:29:43;;;;;;;29.33;21.73;;;;;;;12.32;89.01;97520.66;4843049;29;20114;-85
2024/02/22 09:32:10;;;;;;;25.63;20.52;;;;;;;12.33;88.89;97510.91;4826542;29;20136;-85
2024/02/22 09:34:37;;;;;;;24.48;20.23;;;;;;;12.33;89.02;97514.38;4843065;29;20068;-86
2024/02/22 09:37:05;;;;;;;23.67;18.80;;;;;;;12.33;89.45;97513.53;4843173;29;20058;-87
2024/02/22 09:39:32;;;;;;;23.85;18.10;;;;;;;12.32;89.03;97510.09;4826008;29;20061;-86
2024/02/22 09:41:59;;;;;;;25.27;18.98;;;;;;;12.33;89.23;97502.97;4826616;29;20518;-85
2024/02/22 09:44:28;;;;;;;27.35;19.88;;;;;;;12.35;89.11;97490.47;4826593;29;20532;-87
2024/02/22 09:46:54;;;;;;;25.48;19.35;;;;;;;12.35;89.16;97483.41;4826461;29;20085;-86
2024/02/22 09:49:22;;;;;;;22.88;18.77;;;;;;;12.36;88.81;97478.94;4825821;29;20057;-85
2024/02/22 09:51:56;;;;;;;20.38;17.35;;;;;;;12.34;88.53;97471.19;4826310;29;20058;-87
2024/02/22 09:54:23;;;;;;;22.63;18.48;;;;;;;12.37;89.01;97468.25;4842769;29;20122;-86
2024/02/22 09:56:50;;;;;;;25.33;18.27;;;;;;;12.38;88.99;97469.06;4826129;29;20094;-87
2024/02/22 09:59:18;;;;;;;21.40;18.38;;;;;;;12.37;88.87;97465.59;4842109;29;20082;-86
2024/02/22 10:01:45;;;;;;;23.33;17.63;;;;;;;12.41;89.22;97454.75;4842714;29;20069;-86
2024/02/22 10:04:19;;;;;;;21.73;18.13;;;;;;;12.41;88.74;97454.75;4842445;29;20068;-87
2024/02/22 10:06:49;;;;;;;22.15;18.00;;;;;;;12.45;88.81;97445.53;4842594;29;20118;-87
2024/02/22 10:09:16;;;;;;;21.30;17.15;;;;;;;12.48;89.37;97440.75;4825434;29;20114;-87
2024/02/22 10:11:47;;;;;;;20.77;17.60;;;;;;;12.50;88.69;97441.44;4842247;29;20597;-87
2024/02/22 10:14:15;;;;;;;23.40;17.52;;;;;;;12.54;89.07;97428.75;4825674;29;20061;-86
2024/02/22 10:16:44;;;;;;;24.38;18.10;;;;;;;12.58;89.95;97422.19;4825999;29;20088;-87
2024/02/22 10:19:12;;;;;;;21.48;17.80;;;;;;;12.64;90.47;97412.81;4825336;29;20141;-88
2024/02/22 10:21:39;;;;;;;20.80;18.00;;;;;;;12.70;90.85;97398.97;4825338;29;20134;-87
2024/02/22 10:24:06;;;;;;;19.42;17.42;;;;;;;12.79;90.72;97398.97;4825647;29;20066;-87
2024/02/22 10:26:32;;;;;;;19.08;17.08;;;;;;;12.85;90.42;97390.41;4825654;29;20481;-86
2024/02/22 10:29:06;;;;;;;17.38;15.57;;;;;;;12.92;90.16;97382.66;4825047;29;20518;-86
2024/02/22 10:31:39;;;;;;;18.25;15.02;;;;;;;12.96;87.81;97374.28;4825544;29;20122;-85
2024/02/22 10:34:07;;;;;;;13.98;12.57;;;;;;;13.02;88.95;97362.25;4841998;29;20069;-87
2024/02/22 10:36:36;;;;;;;14.02;12.63;;;;;;;13.04;88.55;97360.25;4842421;29;20140;-85
2024/02/22 10:39:03;;;;;;;13.93;11.93;;;;;;;13.06;89.37;97350.38;4841414;29;20118;-85
2024/02/22 10:41:30;;;;;;;17.00;13.10;;;;;;;13.12;89.84;97354.97;4842144;29;20145;-86
2024/02/22 10:43:59;;;;;;;12.65;11.45;;;;;;;13.18;89.80;97350.03;4841542;29;20093;-87
2024/02/22 10:46:27;;;;;;;11.63;10.60;;;;;;;13.24;90.10;97339.63;4841826;29;20058;-86
2024/02/22 10:48:55;;;;;;;12.02;10.93;;;;;;;13.32;90.22;97325.63;4824574;29;20406;-86
2024/02/22 10:51:23;;;;;;;10.48;9.48;;;;;;;13.37;89.07;97312.72;4825251;29;20062;-86
2024/02/22 10:53:55;;;;;;;9.93;9.02;;;;;;;13.43;88.55;97308.59;4825429;29;20065;-86
2024/02/22 10:56:23;;;;;;;9.93;9.02;;;;;;;13.50;89.35;97299.03;4825440;29;20501;-86
2024/02/22 10:58:55;;;;;;;9.52;8.63;;;;;;;13.57;88.67;97296.53;4825209;29;20088;-87
2024/02/22 11:01:23;;;;;;;9.43;8.52;;;;;;;13.64;88.74;97286.16;4825271;29;20062;-86
2024/02/22 11:03:50;;;;;;;10.30;9.30;;;;;;;13.71;89.28;97283.66;4825487;29;20517;-86
2024/02/22 11:06:21;;;;;;;9.85;8.95;;;;;;;13.74;87.31;97280.66;4841401;29;20429;-86
2024/02/22 11:08:49;;;;;;;10.63;9.68;;;;;;;13.83;88.83;97266.41;4824499;29;20145;-86
2024/02/22 11:11:27;;;;;;;11.70;10.70;;;;;;;13.88;86.95;97264.09;4825494;29;20414;-88
2024/02/22 11:14:02;;;;;;;10.35;9.45;;;;;;;13.94;86.81;97258.13;4825251;29;20122;-85
2024/02/22 11:16:40;;;;;;;10.60;9.57;;;;;;;14.00;85.54;97255.78;4825262;29;20054;-86
2024/02/22 11:19:16;;;;;;;9.52;8.52;;;;;;;14.07;87.56;97243.53;4824628;29;20058;-87
2024/02/22 11:21:43;;;;;;;8.68;7.80;;;;;;;14.11;87.08;97244.00;4824687;29;20384;-86
2024/02/22 11:27:06;;;;;;;7.13;6.53;;;;;;;14.14;85.74;97215.38;5487503;24;20070;-76
2024/02/22 11:29:33;;;;;;;5.70;5.20;;;;;;;14.13;85.49;97224.31;4823626;29;20603;-76
2024/02/22 11:32:00;;;;;;;4.47;4.07;;;;;;;14.10;85.28;97214.09;4840246;29;20168;-76